Time;durP1;ratioP1;P1;durP2;ratioP2;P2;SDS_P1;SDS_P2;PMS_P1;PMS_P2;Temp;Humidity;BMP_temperature;BMP_pressure;BME280_temperature;BME280_humidity;BME280_pressure;Samples;Min_cycle;Max_cycle;Signal;HPM_P1;HPM_P2
2021/08/01 00:01:56;;;;;;;6.30;4.90;;;18.90;99.90;;;;;;5112406;28;20927;-68
2021/08/01 00:04:23;;;;;;;10.00;5.70;;;18.90;99.90;;;;;;5112772;28;20491;-68
2021/08/01 00:06:52;;;;;;;8.50;6.37;;;18.90;99.90;;;;;;5112666;28;20442;-68
2021/08/01 00:09:19;;;;;;;6.80;5.50;;;18.90;99.90;;;;;;5111771;28;20503;-68
2021/08/01 00:11:46;;;;;;;8.20;5.13;;;18.90;99.90;;;;;;5112652;28;20445;-68
2021/08/01 00:14:13;;;;;;;7.27;5.00;;;18.90;99.90;;;;;;5112182;28;20430;-68
2021/08/01 00:16:40;;;;;;;7.60;5.07;;;18.90;99.90;;;;;;5112347;28;20485;-68
2021/08/01 00:19:07;;;;;;;9.30;6.50;;;18.90;99.90;;;;;;5111759;28;20495;-68
2021/08/01 00:21:34;;;;;;;6.30;5.70;;;18.90;99.90;;;;;;5111992;28;20469;-68
2021/08/01 00:24:03;;;;;;;12.43;6.30;;;18.90;99.90;;;;;;5112766;28;20466;-67
2021/08/01 00:26:30;;;;;;;7.23;5.80;;;18.90;99.90;;;;;;5111951;28;20488;-68
2021/08/01 00:28:57;;;;;;;7.97;6.40;;;18.90;99.90;;;;;;5112424;28;21041;-68
2021/08/01 00:31:24;;;;;;;8.50;5.47;;;18.80;99.90;;;;;;5112102;28;20473;-73
2021/08/01 00:33:51;;;;;;;7.90;5.90;;;18.80;99.90;;;;;;5111264;28;20545;-68
2021/08/01 00:36:18;;;;;;;9.60;6.13;;;18.80;99.90;;;;;;5112206;28;20485;-68
2021/08/01 00:38:45;;;;;;;6.10;4.63;;;18.70;99.90;;;;;;5111708;28;20445;-68
2021/08/01 00:41:13;;;;;;;6.70;5.50;;;18.70;99.90;;;;;;5115745;28;20491;-67
2021/08/01 00:43:40;;;;;;;8.27;5.50;;;18.70;99.90;;;;;;5115570;28;20996;-68
2021/08/01 00:46:07;;;;;;;6.23;5.50;;;18.70;99.90;;;;;;5115366;28;20430;-67
2021/08/01 00:48:36;;;;;;;7.27;5.63;;;18.70;99.90;;;;;;5115908;28;20434;-68
2021/08/01 00:51:04;;;;;;;6.30;5.20;;;18.70;99.90;;;;;;5115208;28;20469;-67
2021/08/01 00:53:31;;;;;;;7.47;5.70;;;18.70;99.90;;;;;;5115365;28;20446;-67
2021/08/01 00:55:58;;;;;;;10.63;5.90;;;18.70;99.90;;;;;;5115352;28;20528;-68
2021/08/01 00:58:26;;;;;;;6.97;4.90;;;18.70;99.90;;;;;;5115273;28;20502;-68
2021/08/01 01:01:05;;;;;;;6.77;5.37;;;18.70;99.90;;;;;;5115682;28;20598;-68
2021/08/01 01:03:56;;;;;;;11.47;7.67;;;18.60;99.90;;;;;;5115291;28;20437;-68
2021/08/01 01:06:32;;;;;;;13.27;5.43;;;18.50;99.90;;;;;;5115435;28;20445;-67
2021/08/01 01:09:03;;;;;;;6.63;4.67;;;18.40;99.90;;;;;;5115539;28;20430;-68
2021/08/01 01:11:35;;;;;;;7.73;5.03;;;18.40;99.90;;;;;;5115077;28;20491;-68
2021/08/01 01:14:04;;;;;;;5.90;5.00;;;18.40;99.90;;;;;;5115094;28;20828;-68
2021/08/01 01:16:40;;;;;;;7.30;4.93;;;18.40;99.90;;;;;;5115115;28;20478;-67
2021/08/01 01:19:12;;;;;;;7.37;4.73;;;18.40;99.90;;;;;;5114616;28;20440;-67
2021/08/01 01:21:47;;;;;;;6.03;4.83;;;18.40;99.90;;;;;;5115156;28;20517;-68
2021/08/01 01:24:18;;;;;;;9.50;6.27;;;18.40;99.90;;;;;;5115115;28;20495;-67
2021/08/01 01:27:01;;;;;;;5.33;4.00;;;18.50;99.90;;;;;;5115070;28;20437;-68
2021/08/01 01:29:39;;;;;;;6.97;5.47;;;18.50;99.90;;;;;;5094838;28;20776;-68
2021/08/01 01:32:11;;;;;;;7.10;5.13;;;18.50;99.90;;;;;;5095736;28;20626;-68
2021/08/01 01:34:48;;;;;;;8.83;6.17;;;18.60;99.90;;;;;;5114394;28;20526;-68
2021/08/01 01:37:20;;;;;;;5.67;4.83;;;18.60;99.90;;;;;;5114270;28;20487;-67
2021/08/01 01:39:49;;;;;;;6.50;5.13;;;18.60;99.90;;;;;;5114661;28;20442;-68
2021/08/01 01:42:18;;;;;;;8.43;5.00;;;18.50;99.90;;;;;;5114356;28;20465;-68
2021/08/01 01:44:52;;;;;;;9.53;5.93;;;18.50;99.90;;;;;;5114321;28;20525;-68
2021/08/01 01:47:20;;;;;;;7.10;5.33;;;18.40;99.90;;;;;;5113894;28;20470;-67
2021/08/01 01:49:49;;;;;;;6.97;5.13;;;18.40;99.90;;;;;;5114610;28;20782;-67
2021/08/01 01:52:18;;;;;;;6.33;4.97;;;18.40;99.90;;;;;;5114428;28;20438;-67
2021/08/01 01:54:46;;;;;;;5.93;5.27;;;18.30;99.90;;;;;;5114454;28;20487;-67
2021/08/01 01:57:14;;;;;;;6.20;5.23;;;18.30;99.90;;;;;;5113582;28;20490;-67
2021/08/01 01:59:41;;;;;;;7.50;4.80;;;18.30;99.90;;;;;;5114261;28;20434;-73
2021/08/01 02:02:08;;;;;;;5.60;5.00;;;18.30;99.90;;;;;;5113968;28;20434;-67
2021/08/01 02:04:35;;;;;;;7.40;5.97;;;18.40;99.90;;;;;;5114372;28;20525;-68
2021/08/01 02:07:03;;;;;;;8.07;5.67;;;18.40;99.90;;;;;;5114256;28;20495;-68
2021/08/01 02:09:39;;;;;;;5.70;4.90;;;18.40;99.90;;;;;;5114031;28;20789;-69
2021/08/01 02:12:13;;;;;;;5.97;5.13;;;18.50;99.90;;;;;;5113755;28;20442;-68
2021/08/01 02:14:53;;;;;;;6.30;5.07;;;18.50;99.90;;;;;;5114340;28;20855;-68
2021/08/01 02:17:25;;;;;;;6.50;4.77;;;18.40;99.90;;;;;;5113678;28;20570;-68
2021/08/01 02:19:54;;;;;;;6.80;5.73;;;18.40;99.90;;;;;;5113328;28;20461;-68
2021/08/01 02:22:21;;;;;;;8.43;6.07;;;18.50;99.90;;;;;;5113963;28;20506;-69
2021/08/01 02:24:50;;;;;;;5.40;4.67;;;18.50;99.90;;;;;;5113664;28;20437;-67
2021/08/01 02:27:19;;;;;;;6.30;5.47;;;18.50;99.90;;;;;;5113807;28;21004;-68
2021/08/01 02:29:48;;;;;;;8.50;5.10;;;18.50;99.90;;;;;;5113323;28;20446;-68
2021/08/01 02:32:18;;;;;;;7.37;5.23;;;18.50;99.90;;;;;;5113378;28;20529;-68
2021/08/01 02:34:45;;;;;;;5.40;4.80;;;18.50;99.90;;;;;;5129042;27;20433;-74
2021/08/01 02:37:15;;;;;;;7.23;4.67;;;18.40;99.90;;;;;;5131895;27;20477;-68
2021/08/01 02:39:45;;;;;;;6.97;4.23;;;18.40;99.90;;;;;;5113764;28;20521;-68
2021/08/01 02:42:16;;;;;;;6.77;4.80;;;18.30;99.90;;;;;;5113220;28;20477;-68
2021/08/01 02:44:44;;;;;;;5.77;4.13;;;18.20;99.90;;;;;;5123313;27;20475;-68
2021/08/01 02:47:15;;;;;;;4.70;3.40;;;18.10;99.90;;;;;;5113151;28;20819;-68
2021/08/01 02:49:46;;;;;;;4.50;3.73;;;18.10;99.90;;;;;;5128502;27;20437;-68
2021/08/01 02:52:20;;;;;;;5.97;4.50;;;18.00;99.90;;;;;;5133371;27;20516;-68
2021/08/01 02:54:53;;;;;;;4.77;3.30;;;17.90;99.90;;;;;;5113514;28;20757;-68
2021/08/01 02:57:25;;;;;;;5.27;3.57;;;17.90;99.90;;;;;;5116208;27;20503;-68
2021/08/01 02:59:53;;;;;;;12.67;4.57;;;17.80;99.90;;;;;;5133380;27;20529;-68
2021/08/01 03:02:21;;;;;;;7.07;3.77;;;17.80;99.90;;;;;;5124553;27;20438;-68
2021/08/01 03:04:49;;;;;;;4.70;3.37;;;17.70;99.90;;;;;;5113220;28;20466;-67
2021/08/01 03:07:18;;;;;;;7.80;3.30;;;17.70;99.90;;;;;;5115590;27;20438;-67
2021/08/01 03:09:46;;;;;;;7.43;3.00;;;17.60;99.90;;;;;;5120395;27;20920;-68
2021/08/01 03:12:15;;;;;;;4.47;3.30;;;17.50;99.40;;;;;;5114987;27;20434;-71
2021/08/01 03:14:44;;;;;;;7.30;3.73;;;17.50;99.40;;;;;;5133780;27;20469;-68
2021/08/01 03:17:11;;;;;;;6.97;4.20;;;17.40;99.60;;;;;;5127850;27;20531;-68
2021/08/01 03:19:40;;;;;;;4.87;3.80;;;17.30;99.40;;;;;;5113248;28;20507;-67
2021/08/01 03:22:07;;;;;;;8.77;4.23;;;17.20;99.60;;;;;;5122574;27;20457;-68
2021/08/01 03:24:35;;;;;;;7.87;4.73;;;17.20;99.60;;;;;;5122369;27;20481;-67
2021/08/01 03:27:02;;;;;;;4.60;3.17;;;17.20;99.90;;;;;;5113245;28;20430;-67
2021/08/01 03:29:29;;;;;;;7.03;3.60;;;17.10;99.60;;;;;;5124832;28;20426;-67
2021/08/01 03:31:57;;;;;;;6.07;3.97;;;17.10;99.90;;;;;;5133274;27;20931;-68
2021/08/01 03:34:24;;;;;;;5.20;3.30;;;17.10;99.80;;;;;;5132300;27;20460;-68
2021/08/01 03:36:51;;;;;;;3.80;3.07;;;17.10;99.80;;;;;;5133310;27;20512;-68
2021/08/01 03:39:18;;;;;;;6.63;3.30;;;17.10;99.90;;;;;;5132698;27;20433;-67
2021/08/01 03:41:45;;;;;;;9.17;4.00;;;17.10;99.80;;;;;;5133208;28;20502;-68
2021/08/01 03:44:12;;;;;;;5.97;3.60;;;17.10;99.90;;;;;;5121235;28;20454;-68
2021/08/01 03:46:40;;;;;;;3.07;2.60;;;17.00;99.90;;;;;;5126413;28;20429;-71
2021/08/01 03:49:08;;;;;;;3.10;2.30;;;17.10;99.90;;;;;;5122503;28;20509;-68
2021/08/01 03:51:35;;;;;;;3.00;1.67;;;17.00;99.90;;;;;;5113880;28;20470;-68
2021/08/01 03:54:02;;;;;;;4.27;2.23;;;17.00;99.90;;;;;;5133060;28;20465;-67
2021/08/01 03:56:29;;;;;;;2.77;1.80;;;17.00;99.90;;;;;;5133002;28;20477;-68
2021/08/01 03:58:57;;;;;;;2.13;1.50;;;17.00;99.90;;;;;;5112945;28;20430;-68
2021/08/01 04:01:24;;;;;;;2.37;1.33;;;17.00;99.90;;;;;;5112513;28;20442;-68
2021/08/01 04:03:51;;;;;;;3.80;1.40;;;17.00;99.90;;;;;;5121011;28;20993;-68
2021/08/01 04:06:19;;;;;;;3.30;1.23;;;17.00;99.90;;;;;;5112704;28;20514;-68
2021/08/01 04:08:47;;;;;;;2.10;1.00;;;16.90;99.90;;;;;;5129704;28;20811;-68
2021/08/01 04:11:14;;;;;;;2.23;1.10;;;16.90;99.90;;;;;;5133215;28;20441;-68
2021/08/01 04:13:41;;;;;;;2.50;1.30;;;16.90;99.90;;;;;;5123827;27;20798;-68
2021/08/01 04:16:09;;;;;;;5.13;1.10;;;16.90;99.90;;;;;;5136764;27;20433;-68
2021/08/01 04:18:36;;;;;;;1.80;0.90;;;16.90;99.90;;;;;;5121718;27;20780;-68
2021/08/01 04:21:10;;;;;;;1.93;0.80;;;16.90;99.90;;;;;;5116575;28;20912;-68
2021/08/01 04:23:39;;;;;;;1.87;1.10;;;16.80;99.90;;;;;;5130843;27;20441;-68
2021/08/01 04:26:07;;;;;;;2.43;0.80;;;16.80;99.80;;;;;;5128279;27;20497;-68
2021/08/01 04:28:35;;;;;;;1.93;1.10;;;16.70;99.70;;;;;;5137026;27;20441;-67
2021/08/01 04:31:02;;;;;;;1.90;1.20;;;16.70;99.50;;;;;;5136797;27;20468;-67
2021/08/01 04:33:30;;;;;;;2.27;1.27;;;16.70;99.50;;;;;;5136651;27;20798;-70
2021/08/01 04:35:57;;;;;;;2.63;1.40;;;16.70;99.40;;;;;;5134785;27;20501;-67
2021/08/01 04:38:24;;;;;;;2.00;1.10;;;16.60;99.50;;;;;;5123125;27;21006;-67
2021/08/01 04:40:52;;;;;;;3.27;1.17;;;16.60;99.40;;;;;;5124464;27;20441;-67
2021/08/01 04:43:19;;;;;;;8.73;1.37;;;16.50;99.30;;;;;;5136687;27;20842;-67
2021/08/01 04:45:46;;;;;;;2.00;1.00;;;16.50;99.30;;;;;;5134556;27;20437;-67
2021/08/01 04:48:13;;;;;;;2.27;1.33;;;16.50;99.30;;;;;;5136582;27;20482;-67
2021/08/01 04:50:41;;;;;;;3.87;1.77;;;16.50;99.30;;;;;;5121666;27;20438;-68
2021/08/01 04:53:08;;;;;;;2.10;1.40;;;16.50;99.10;;;;;;5115881;28;20434;-67
2021/08/01 04:55:35;;;;;;;3.80;1.60;;;16.50;99.00;;;;;;5129075;27;20441;-68
2021/08/01 04:58:04;;;;;;;2.10;1.27;;;16.50;99.00;;;;;;5136523;27;20483;-68
2021/08/01 05:00:31;;;;;;;1.90;1.20;;;16.50;98.90;;;;;;5123643;27;20879;-67
2021/08/01 05:03:00;;;;;;;2.50;1.53;;;16.50;98.80;;;;;;5132381;27;20504;-67
2021/08/01 05:05:27;;;;;;;2.60;1.47;;;16.40;98.70;;;;;;5124673;27;20923;-69
2021/08/01 05:07:54;;;;;;;6.57;2.00;;;16.40;98.50;;;;;;5132339;27;20465;-67
2021/08/01 05:10:21;;;;;;;3.50;1.40;;;16.40;98.40;;;;;;5135095;27;20429;-67
2021/08/01 05:12:48;;;;;;;3.17;1.60;;;16.40;98.50;;;;;;5135909;27;20542;-67
2021/08/01 05:15:17;;;;;;;3.00;1.70;;;16.40;98.40;;;;;;5116729;27;20928;-68
2021/08/01 05:17:44;;;;;;;3.07;1.77;;;16.40;98.40;;;;;;5115533;28;20546;-67
2021/08/01 05:20:11;;;;;;;2.40;1.57;;;16.40;98.40;;;;;;5132432;27;20434;-68
2021/08/01 05:22:38;;;;;;;4.53;3.17;;;16.40;98.30;;;;;;5135981;27;20558;-68
2021/08/01 05:25:06;;;;;;;7.03;4.70;;;16.40;98.20;;;;;;5133873;27;20547;-68
2021/08/01 05:27:34;;;;;;;3.53;2.47;;;16.40;98.50;;;;;;5135953;27;20449;-68
2021/08/01 05:30:01;;;;;;;1.90;1.50;;;16.40;98.50;;;;;;5120176;27;20517;-69
2021/08/01 05:32:34;;;;;;;2.80;1.30;;;16.40;98.50;;;;;;5115128;28;20498;-68
2021/08/01 05:35:01;;;;;;;5.93;2.00;;;16.40;98.60;;;;;;5116282;27;20445;-68
2021/08/01 05:37:29;;;;;;;3.07;1.60;;;16.40;98.70;;;;;;5115195;28;20485;-72
2021/08/01 05:39:57;;;;;;;3.30;1.70;;;16.50;98.60;;;;;;5128890;27;20433;-67
2021/08/01 05:42:24;;;;;;;2.77;1.60;;;16.50;98.60;;;;;;5135949;27;20789;-68
2021/08/01 05:44:51;;;;;;;2.97;2.07;;;16.50;98.70;;;;;;5122160;27;20857;-68
2021/08/01 05:47:18;;;;;;;2.40;1.63;;;16.50;98.50;;;;;;5129748;27;20483;-68
2021/08/01 05:49:47;;;;;;;2.77;2.10;;;16.50;98.30;;;;;;5123657;27;20445;-68
2021/08/01 05:52:16;;;;;;;3.20;1.87;;;16.40;98.00;;;;;;5114809;28;20439;-68
2021/08/01 05:54:43;;;;;;;4.40;1.80;;;16.30;97.80;;;;;;5115637;27;20431;-68
2021/08/01 05:57:10;;;;;;;3.00;1.97;;;16.30;98.10;;;;;;5119101;27;20484;-68
2021/08/01 05:59:37;;;;;;;2.37;1.80;;;16.20;98.30;;;;;;5119399;27;20533;-68
2021/08/01 06:02:04;;;;;;;2.30;1.60;;;16.10;98.50;;;;;;5132241;27;20474;-68
2021/08/01 06:04:32;;;;;;;3.30;2.40;;;16.00;98.90;;;;;;5135333;27;20771;-69
2021/08/01 06:07:00;;;;;;;6.50;3.10;;;16.00;99.30;;;;;;5132935;27;20433;-68
2021/08/01 06:09:27;;;;;;;3.23;1.73;;;16.00;99.10;;;;;;5114922;28;20442;-67
2021/08/01 06:11:54;;;;;;;3.80;2.20;;;15.90;99.50;;;;;;5131902;27;20436;-67
2021/08/01 06:14:21;;;;;;;2.77;1.53;;;15.90;99.90;;;;;;5135159;27;20438;-68
2021/08/01 06:16:48;;;;;;;3.10;2.00;;;15.90;99.90;;;;;;5118244;27;20438;-67
2021/08/01 06:19:15;;;;;;;2.60;1.77;;;15.90;99.90;;;;;;5114414;28;20463;-75
2021/08/01 06:21:42;;;;;;;3.00;2.20;;;16.00;99.90;;;;;;5115226;27;20521;-68
2021/08/01 06:24:11;;;;;;;4.20;3.23;;;16.10;99.90;;;;;;5130830;27;20859;-68
2021/08/01 06:26:39;;;;;;;2.90;1.70;;;16.10;99.90;;;;;;5121023;27;20503;-69
2021/08/01 06:29:06;;;;;;;4.00;2.50;;;16.20;99.90;;;;;;5113914;28;20922;-67
2021/08/01 06:31:34;;;;;;;2.07;1.53;;;16.20;99.90;;;;;;5125865;27;20437;-67
2021/08/01 06:34:01;;;;;;;2.80;1.60;;;16.20;99.90;;;;;;5134151;27;20998;-67
2021/08/01 06:36:29;;;;;;;3.73;2.13;;;16.30;99.90;;;;;;5117584;27;20434;-67
2021/08/01 06:38:56;;;;;;;3.60;2.50;;;16.50;99.90;;;;;;5113628;28;20481;-68
2021/08/01 06:41:24;;;;;;;2.60;1.53;;;16.40;99.70;;;;;;5128693;27;20534;-67
2021/08/01 06:43:52;;;;;;;3.60;1.80;;;16.40;98.90;;;;;;5132551;27;20440;-67
2021/08/01 06:46:19;;;;;;;2.33;1.57;;;16.40;99.30;;;;;;5134318;27;20445;-68
2021/08/01 06:48:46;;;;;;;5.17;3.47;;;16.50;99.90;;;;;;5115423;27;21385;-68
2021/08/01 06:51:14;;;;;;;3.37;2.47;;;16.60;99.90;;;;;;5113783;28;20434;-68
2021/08/01 06:53:41;;;;;;;2.80;2.00;;;16.70;99.90;;;;;;5130661;27;20502;-69
2021/08/01 06:56:08;;;;;;;3.30;1.80;;;16.60;98.60;;;;;;5134425;27;20469;-67
2021/08/01 06:58:36;;;;;;;3.97;2.97;;;16.50;98.30;;;;;;5117973;27;20478;-68
2021/08/01 07:01:03;;;;;;;3.57;2.07;;;16.40;98.90;;;;;;5093152;28;20435;-68
2021/08/01 07:03:31;;;;;;;3.70;2.20;;;16.50;99.10;;;;;;5122435;27;20490;-68
2021/08/01 07:05:58;;;;;;;4.67;3.00;;;16.50;99.40;;;;;;5134151;27;20935;-67
2021/08/01 07:08:25;;;;;;;4.87;2.87;;;16.40;99.00;;;;;;5120450;27;20434;-68
2021/08/01 07:10:52;;;;;;;3.83;3.50;;;16.30;98.90;;;;;;5115584;27;20780;-68
2021/08/01 07:13:19;;;;;;;4.77;2.80;;;16.20;99.50;;;;;;5133585;27;20465;-67
2021/08/01 07:15:49;;;;;;;3.90;2.20;;;16.20;99.20;;;;;;5132174;27;20445;-68
2021/08/01 07:18:16;;;;;;;5.20;2.80;;;16.10;99.20;;;;;;5113334;28;20477;-68
2021/08/01 07:20:43;;;;;;;4.77;2.50;;;16.20;99.90;;;;;;5113023;28;20835;-69
2021/08/01 07:23:10;;;;;;;4.27;3.10;;;16.20;99.70;;;;;;5131014;27;20437;-68
2021/08/01 07:25:37;;;;;;;5.03;2.40;;;16.10;99.70;;;;;;5125219;27;20433;-68
2021/08/01 07:28:05;;;;;;;4.43;2.10;;;16.00;99.90;;;;;;5133756;27;20471;-68
2021/08/01 07:30:32;;;;;;;5.03;3.80;;;16.00;99.60;;;;;;5122555;27;20517;-68
2021/08/01 07:33:01;;;;;;;2.97;2.30;;;16.10;99.80;;;;;;5113080;28;20461;-68
2021/08/01 07:35:29;;;;;;;3.00;2.20;;;16.10;99.40;;;;;;5122695;28;20490;-67
2021/08/01 07:37:56;;;;;;;4.20;2.50;;;16.10;99.50;;;;;;5116443;28;21002;-69
2021/08/01 07:40:23;;;;;;;3.27;2.23;;;16.10;99.50;;;;;;5110712;28;20857;-67
2021/08/01 07:42:50;;;;;;;3.30;2.60;;;16.10;99.60;;;;;;5112524;28;20430;-68
2021/08/01 07:45:24;;;;;;;2.80;2.13;;;16.10;99.60;;;;;;5110950;28;20438;-68
2021/08/01 07:47:51;;;;;;;2.50;1.87;;;16.10;99.90;;;;;;5105896;28;20438;-67
2021/08/01 07:50:20;;;;;;;3.93;2.20;;;16.20;99.90;;;;;;5116503;27;20494;-68
2021/08/01 07:52:47;;;;;;;6.63;3.70;;;16.30;99.90;;;;;;5121028;27;20448;-67
2021/08/01 07:55:15;;;;;;;3.53;2.43;;;16.30;99.90;;;;;;5117414;27;20843;-68
2021/08/01 07:57:43;;;;;;;4.23;2.80;;;16.30;99.90;;;;;;5120607;27;20945;-68
2021/08/01 08:00:12;;;;;;;6.47;3.67;;;16.30;99.90;;;;;;5124696;27;20799;-71
2021/08/01 08:02:39;;;;;;;7.93;3.03;;;16.40;99.80;;;;;;5120596;27;20439;-68
2021/08/01 08:05:08;;;;;;;4.40;3.27;;;16.30;99.50;;;;;;5122390;27;20466;-68
2021/08/01 08:07:36;;;;;;;4.17;2.50;;;16.30;99.60;;;;;;5120165;27;20437;-67
2021/08/01 08:10:04;;;;;;;3.70;2.60;;;16.40;99.90;;;;;;5120793;27;20517;-69
2021/08/01 08:12:32;;;;;;;3.13;2.20;;;16.40;99.70;;;;;;5121932;27;20463;-69
2021/08/01 08:14:59;;;;;;;3.10;2.43;;;16.50;99.70;;;;;;5112548;27;20796;-68
2021/08/01 08:17:26;;;;;;;6.47;3.57;;;16.50;99.90;;;;;;5113344;27;20442;-68
2021/08/01 08:19:53;;;;;;;5.13;3.80;;;16.60;99.70;;;;;;5114418;28;20426;-68
2021/08/01 08:22:20;;;;;;;5.13;3.93;;;16.60;99.20;;;;;;5116670;27;20460;-68
2021/08/01 08:24:48;;;;;;;4.70;3.10;;;16.60;99.20;;;;;;5114449;28;20442;-68
2021/08/01 08:27:15;;;;;;;5.10;2.50;;;16.60;99.30;;;;;;5114616;27;20861;-68
2021/08/01 08:29:42;;;;;;;3.97;2.40;;;16.60;99.40;;;;;;5115949;27;20520;-68
2021/08/01 08:32:10;;;;;;;3.20;2.00;;;16.60;98.80;;;;;;5114071;28;20512;-70
2021/08/01 08:34:37;;;;;;;3.10;1.87;;;16.60;98.80;;;;;;5112100;27;20462;-68
2021/08/01 08:37:04;;;;;;;2.57;1.60;;;16.60;98.80;;;;;;5121116;27;20443;-68
2021/08/01 08:39:31;;;;;;;4.90;2.27;;;16.50;98.70;;;;;;5114420;28;20488;-68
2021/08/01 08:42:02;;;;;;;2.30;1.80;;;16.50;98.40;;;;;;5110687;28;20434;-68
2021/08/01 08:44:29;;;;;;;5.50;4.90;;;16.50;98.50;;;;;;5114983;27;20495;-68
2021/08/01 08:46:57;;;;;;;3.83;2.27;;;16.40;98.60;;;;;;5115124;27;20529;-68
2021/08/01 08:49:24;;;;;;;3.33;1.80;;;16.30;98.60;;;;;;5110304;27;20437;-68
2021/08/01 08:51:54;;;;;;;3.40;2.23;;;16.10;98.90;;;;;;5111698;27;20498;-67
2021/08/01 08:54:26;;;;;;;4.57;2.40;;;16.00;99.30;;;;;;5105154;28;20924;-68
2021/08/01 08:56:56;;;;;;;4.13;2.23;;;15.80;99.90;;;;;;5116821;27;20438;-68
2021/08/01 08:59:25;;;;;;;4.00;2.60;;;15.90;99.90;;;;;;5109651;28;20486;-69
2021/08/01 09:01:52;;;;;;;3.23;2.00;;;16.10;99.90;;;;;;5114083;28;20935;-67
2021/08/01 09:04:19;;;;;;;3.33;2.37;;;16.20;99.90;;;;;;5114561;28;20430;-68
2021/08/01 09:06:46;;;;;;;5.70;2.13;;;16.40;99.90;;;;;;5118069;27;20434;-68
2021/08/01 09:09:14;;;;;;;2.80;1.93;;;16.60;99.90;;;;;;5114276;27;20442;-68
2021/08/01 09:11:42;;;;;;;3.30;1.80;;;16.80;99.90;;;;;;5115982;28;20430;-68
2021/08/01 09:14:19;;;;;;;3.00;1.77;;;16.90;99.90;;;;;;5116919;27;20441;-68
2021/08/01 09:16:50;;;;;;;3.90;1.70;;;16.90;99.90;;;;;;5136748;27;20464;-68
2021/08/01 09:19:35;;;;;;;2.47;2.17;;;17.10;99.90;;;;;;5134663;27;20487;-68
2021/08/01 09:22:17;;;;;;;2.23;1.37;;;17.30;99.90;;;;;;5095627;28;20439;-68
2021/08/01 09:24:45;;;;;;;4.23;2.03;;;17.50;99.90;;;;;;5127338;27;20844;-68
2021/08/01 09:27:29;;;;;;;2.00;1.50;;;17.70;99.90;;;;;;5136484;27;20455;-67
2021/08/01 09:29:57;;;;;;;2.67;1.60;;;17.90;99.70;;;;;;5118951;27;20512;-68
2021/08/01 09:32:26;;;;;;;2.00;1.20;;;18.00;98.20;;;;;;5128023;27;20426;-68
2021/08/01 09:34:53;;;;;;;2.73;1.70;;;18.20;97.10;;;;;;5135994;27;20494;-68
2021/08/01 09:37:34;;;;;;;2.10;1.27;;;18.20;97.00;;;;;;5134505;27;20520;-68
2021/08/01 09:40:10;;;;;;;2.47;1.57;;;18.40;97.20;;;;;;5095112;28;20479;-68
2021/08/01 09:42:44;;;;;;;2.80;1.60;;;18.60;97.10;;;;;;5110750;27;20429;-67
2021/08/01 09:45:17;;;;;;;2.20;1.50;;;18.70;95.90;;;;;;5123252;27;20469;-67
2021/08/01 09:47:46;;;;;;;2.73;1.40;;;18.80;94.60;;;;;;5117622;27;20432;-68
2021/08/01 09:50:14;;;;;;;2.40;1.50;;;18.80;95.20;;;;;;5126795;27;20477;-68
2021/08/01 09:52:41;;;;;;;2.07;1.37;;;18.90;95.30;;;;;;5125982;27;20529;-68
2021/08/01 09:55:17;;;;;;;3.47;1.90;;;18.90;95.00;;;;;;5126512;27;20427;-68
2021/08/01 09:57:51;;;;;;;5.63;3.20;;;19.00;94.40;;;;;;5120518;27;20445;-68
2021/08/01 10:00:19;;;;;;;5.37;2.80;;;19.10;94.40;;;;;;5119135;27;20477;-68
2021/08/01 10:02:48;;;;;;;2.53;1.37;;;19.30;94.70;;;;;;5113040;27;20533;-68
2021/08/01 10:05:17;;;;;;;4.70;1.80;;;19.40;94.10;;;;;;5118666;27;20446;-67
2021/08/01 10:07:44;;;;;;;1.80;1.20;;;19.50;94.20;;;;;;5112391;27;20781;-68
2021/08/01 10:10:22;;;;;;;2.73;1.77;;;19.70;94.70;;;;;;5116151;27;20441;-68
2021/08/01 10:12:52;;;;;;;2.90;1.87;;;19.90;92.80;;;;;;5121554;27;20488;-68
2021/08/01 10:15:19;;;;;;;3.03;1.50;;;20.00;90.90;;;;;;5119810;27;20494;-68
2021/08/01 10:17:47;;;;;;;2.83;1.47;;;20.10;92.20;;;;;;5117408;27;20525;-68
2021/08/01 10:20:14;;;;;;;3.90;1.80;;;20.20;91.60;;;;;;5117636;27;20480;-67
2021/08/01 10:22:43;;;;;;;4.83;1.40;;;20.40;92.20;;;;;;5114285;27;20430;-68
2021/08/01 10:25:12;;;;;;;2.97;1.77;;;20.60;91.80;;;;;;5116422;27;20829;-68
2021/08/01 10:27:45;;;;;;;3.47;2.00;;;20.70;89.80;;;;;;5112077;27;20512;-67
2021/08/01 10:30:18;;;;;;;2.20;1.37;;;20.70;89.60;;;;;;5113279;27;20465;-67
2021/08/01 10:32:49;;;;;;;2.20;1.30;;;20.70;90.20;;;;;;5114758;27;20466;-68
2021/08/01 10:35:17;;;;;;;2.43;1.43;;;20.50;87.30;;;;;;5116954;27;20540;-68
2021/08/01 10:37:53;;;;;;;3.67;1.60;;;20.30;90.20;;;;;;5110090;28;20532;-68
2021/08/01 10:40:22;;;;;;;3.13;1.70;;;20.20;90.00;;;;;;5112619;27;20484;-68
2021/08/01 10:42:52;;;;;;;2.50;1.73;;;20.10;90.20;;;;;;5112204;27;20793;-68
2021/08/01 10:45:19;;;;;;;3.37;1.60;;;20.00;88.90;;;;;;5113586;27;20858;-67
2021/08/01 10:47:51;;;;;;;2.93;1.43;;;19.80;89.10;;;;;;5113110;27;20446;-68
2021/08/01 10:50:19;;;;;;;2.73;1.30;;;19.60;89.80;;;;;;5118870;27;20449;-67
2021/08/01 10:52:49;;;;;;;4.33;2.57;;;19.40;88.60;;;;;;5124526;27;20444;-67
2021/08/01 10:55:23;;;;;;;2.23;1.47;;;19.30;90.20;;;;;;5125739;27;20480;-67
2021/08/01 10:58:12;;;;;;;8.07;1.50;;;19.10;90.40;;;;;;5125631;27;20842;-67
2021/08/01 11:01:03;;;;;;;2.30;1.40;;;19.10;91.50;;;;;;5125962;27;20492;-69
2021/08/01 11:03:33;;;;;;;2.30;1.60;;;19.10;91.50;;;;;;5091524;27;20529;-67
2021/08/01 11:06:01;;;;;;;2.33;1.60;;;19.00;90.40;;;;;;5111846;28;20462;-69
2021/08/01 11:08:29;;;;;;;3.00;1.80;;;18.90;91.00;;;;;;5123190;27;20433;-68
2021/08/01 11:11:14;;;;;;;3.00;1.73;;;18.80;91.60;;;;;;5119482;27;20954;-67
2021/08/01 11:13:48;;;;;;;3.00;1.67;;;18.60;92.00;;;;;;5120754;27;20445;-68
2021/08/01 11:16:43;;;;;;;2.50;1.63;;;18.50;91.80;;;;;;5109951;27;20425;-67
2021/08/01 11:19:34;;;;;;;2.10;1.30;;;18.40;92.30;;;;;;5116813;27;20478;-68
2021/08/01 11:22:01;;;;;;;2.57;1.63;;;18.30;92.60;;;;;;5115123;27;20453;-67
2021/08/01 11:24:28;;;;;;;2.40;1.50;;;18.40;93.10;;;;;;5112997;27;20439;-67
2021/08/01 11:27:11;;;;;;;3.60;2.10;;;18.50;92.80;;;;;;5114384;27;20433;-68
2021/08/01 11:30:00;;;;;;;6.87;3.60;;;18.60;92.90;;;;;;5111229;27;20445;-68
2021/08/01 11:32:27;;;;;;;4.67;1.93;;;18.80;92.40;;;;;;5114550;27;20469;-68
2021/08/01 11:35:19;;;;;;;2.20;1.27;;;18.90;92.70;;;;;;5116492;27;20494;-68
2021/08/01 11:37:46;;;;;;;2.50;1.33;;;19.20;91.40;;;;;;5111510;28;20936;-68
2021/08/01 11:40:14;;;;;;;2.83;1.73;;;19.30;91.30;;;;;;5111388;28;20504;-69
2021/08/01 11:42:42;;;;;;;2.63;1.50;;;19.50;90.80;;;;;;5107277;28;20434;-67
2021/08/01 11:45:14;;;;;;;3.10;1.80;;;19.60;90.60;;;;;;5107368;28;20557;-67
2021/08/01 11:47:46;;;;;;;3.73;1.80;;;19.60;90.00;;;;;;5111393;28;20816;-68
2021/08/01 11:50:14;;;;;;;2.20;1.50;;;19.80;90.90;;;;;;5107945;28;20434;-67
2021/08/01 11:52:44;;;;;;;2.53;1.43;;;19.90;90.70;;;;;;5113146;28;20812;-67
2021/08/01 11:55:14;;;;;;;3.53;1.70;;;19.90;88.80;;;;;;5109563;28;20446;-68
2021/08/01 11:57:44;;;;;;;2.90;1.23;;;19.90;89.00;;;;;;5106545;28;20438;-67
2021/08/01 12:00:12;;;;;;;2.43;1.60;;;20.10;90.40;;;;;;5115074;28;20538;-68
2021/08/01 12:02:50;;;;;;;2.60;1.43;;;20.20;88.60;;;;;;5108724;28;20919;-68
2021/08/01 12:05:18;;;;;;;2.73;1.50;;;20.30;90.00;;;;;;5106035;28;20528;-67
2021/08/01 12:07:48;;;;;;;2.90;1.27;;;20.40;90.30;;;;;;5109357;28;20445;-68
2021/08/01 12:10:18;;;;;;;2.20;1.43;;;20.60;88.70;;;;;;5110815;28;20474;-68
2021/08/01 12:12:45;;;;;;;2.23;1.00;;;20.80;90.40;;;;;;5109030;28;20441;-67
2021/08/01 12:15:12;;;;;;;3.50;1.20;;;21.10;90.30;;;;;;5113273;28;20445;-68
2021/08/01 12:17:39;;;;;;;3.57;1.57;;;21.30;87.90;;;;;;5110738;28;20430;-68
2021/08/01 12:20:08;;;;;;;3.63;1.30;;;21.40;86.60;;;;;;5110100;28;20987;-68
2021/08/01 12:22:35;;;;;;;3.00;1.33;;;21.40;83.00;;;;;;5115151;28;20466;-68
2021/08/01 12:25:06;;;;;;;2.13;1.33;;;21.30;83.90;;;;;;5111554;28;20431;-67
2021/08/01 12:27:35;;;;;;;2.70;1.63;;;21.40;84.70;;;;;;5112464;28;20534;-70
2021/08/01 12:30:13;;;;;;;2.07;1.23;;;21.60;84.90;;;;;;5113263;28;20491;-67
2021/08/01 12:32:42;;;;;;;2.50;1.47;;;21.60;81.90;;;;;;5108448;28;20465;-68
2021/08/01 12:35:11;;;;;;;4.30;2.77;;;21.50;81.90;;;;;;5107417;28;20796;-68
2021/08/01 12:37:49;;;;;;;2.93;1.70;;;21.50;81.70;;;;;;5116603;27;20438;-68
2021/08/01 12:40:28;;;;;;;3.57;1.60;;;21.50;82.60;;;;;;5117648;27;20533;-68
2021/08/01 12:42:56;;;;;;;2.60;1.30;;;21.40;82.20;;;;;;5114303;27;20478;-67
2021/08/01 12:45:31;;;;;;;2.10;1.13;;;21.40;82.40;;;;;;5118170;27;20934;-68
2021/08/01 12:47:58;;;;;;;2.30;1.30;;;21.30;82.70;;;;;;5108855;27;20437;-68
2021/08/01 12:50:26;;;;;;;2.77;1.43;;;21.20;83.00;;;;;;5117487;27;20437;-68
2021/08/01 12:52:54;;;;;;;4.70;1.67;;;21.20;82.80;;;;;;5112410;27;20472;-68
2021/08/01 12:55:24;;;;;;;2.80;1.20;;;21.10;82.50;;;;;;5113782;27;20442;-68
2021/08/01 12:58:02;;;;;;;2.50;1.60;;;21.00;82.30;;;;;;5111498;27;20508;-68